createdAt,value
2019-04-06T00:01:11.232Z,72.40
2019-04-06T00:06:15.652Z,72.54
2019-04-06T00:11:19.980Z,71.36
2019-04-06T00:16:24.359Z,72.24
2019-04-06T00:21:28.822Z,73.62
2019-04-06T00:26:33.176Z,74.38
2019-04-06T00:31:39.258Z,74.29
2019-04-06T00:36:43.720Z,75.49
2019-04-06T00:41:48.111Z,75.34
2019-04-06T00:46:52.446Z,76.02
2019-04-06T00:51:57.269Z,76.56
2019-04-06T00:57:01.991Z,75.15
2019-04-06T01:02:06.809Z,75.76
2019-04-06T01:07:11.184Z,75.56
2019-04-06T01:12:15.596Z,77.59
2019-04-06T01:17:20.038Z,76.08
2019-04-06T01:22:24.394Z,76.98
2019-04-06T01:27:28.777Z,76.41
2019-04-06T01:32:33.167Z,77.70
2019-04-06T01:37:37.592Z,77.12
2019-04-06T01:42:42.027Z,77.13
2019-04-06T01:47:46.376Z,76.93
2019-04-06T01:52:50.758Z,77.42
2019-04-06T01:57:55.107Z,76.30
2019-04-06T02:02:59.478Z,75.79
2019-04-06T02:08:03.836Z,74.65
2019-04-06T02:13:08.186Z,74.84
2019-04-06T02:18:12.657Z,74.96
2019-04-06T02:23:17.003Z,75.16
2019-04-06T02:28:21.352Z,75.69
2019-04-06T02:33:27.370Z,76.08
2019-04-06T02:38:33.359Z,76.65
2019-04-06T02:43:39.610Z,75.59
2019-04-06T02:48:43.983Z,76.95
2019-04-06T02:53:48.517Z,76.35
2019-04-06T02:58:52.851Z,75.81
2019-04-06T03:03:57.255Z,76.89
2019-04-06T03:09:01.693Z,76.12
2019-04-06T03:14:07.320Z,75.27
2019-04-06T03:19:11.796Z,75.65
2019-04-06T03:24:16.232Z,77.40
2019-04-06T03:29:20.601Z,77.00
2019-04-06T03:34:25.052Z,77.98
2019-04-06T03:39:29.375Z,77.94
2019-04-06T03:44:33.730Z,77.88
2019-04-06T03:49:38.088Z,77.76
2019-04-06T03:54:42.447Z,76.28
2019-04-06T03:59:46.905Z,75.87
2019-04-06T04:04:51.278Z,75.36
2019-04-06T04:09:55.624Z,75.81
2019-04-06T04:15:00.005Z,75.81
2019-04-06T04:20:06.681Z,78.15
2019-04-06T04:25:11.095Z,76.62
2019-04-06T04:30:25.270Z,78.55
2019-04-06T04:35:21.827Z,76.18
2019-04-06T04:40:26.242Z,76.62
2019-04-06T04:45:30.592Z,77.16
2019-04-06T04:50:34.979Z,78.40
2019-04-06T04:55:39.307Z,77.82
2019-04-06T05:00:43.721Z,78.36
2019-04-06T05:05:48.066Z,78.11
2019-04-06T05:10:52.445Z,78.16
2019-04-06T05:16:13.412Z,77.87
2019-04-06T05:21:17.749Z,77.12
2019-04-06T05:26:22.172Z,76.90
2019-04-06T05:31:26.544Z,75.10
2019-04-06T05:36:30.893Z,74.04
2019-04-06T05:41:35.285Z,75.87
2019-04-06T05:46:39.645Z,75.69
2019-04-06T05:51:44.011Z,75.71
2019-04-06T05:56:48.421Z,72.53
2019-04-06T06:01:52.787Z,71.95
2019-04-06T06:06:57.235Z,71.35
2019-04-06T06:12:01.619Z,69.73
2019-04-06T06:17:05.973Z,69.27
2019-04-06T06:22:10.423Z,68.95
2019-04-06T06:27:14.811Z,68.22
2019-04-06T06:32:20.459Z,70.35
2019-04-06T06:37:24.886Z,67.92
2019-04-06T06:42:29.496Z,65.30
2019-04-06T06:47:33.915Z,63.89
2019-04-06T06:52:38.297Z,64.33
2019-04-06T06:57:42.810Z,63.18
2019-04-06T07:02:47.273Z,62.46
2019-04-06T07:07:51.827Z,62.10
2019-04-06T07:12:56.214Z,63.84
2019-04-06T07:18:01.673Z,61.20
2019-04-06T07:23:07.193Z,61.17
2019-04-06T07:28:11.560Z,60.52
2019-04-06T07:33:15.911Z,60.10
2019-04-06T07:38:20.370Z,60.11
2019-04-06T07:43:24.747Z,57.77
2019-04-06T07:48:29.259Z,59.17
2019-04-06T07:53:33.786Z,59.56
2019-04-06T07:58:49.514Z,57.99
2019-04-06T08:03:52.283Z,57.96
2019-04-06T08:08:56.832Z,57.09
2019-04-06T08:14:01.537Z,56.25
2019-04-06T08:19:05.889Z,56.49
2019-04-06T08:24:15.139Z,56.90
2019-04-06T08:29:22.256Z,56.47
2019-04-06T08:34:29.540Z,55.69
2019-04-06T08:39:34.102Z,54.54
2019-04-06T08:44:38.598Z,54.39
2019-04-06T08:49:43.087Z,54.63
2019-04-06T08:54:47.440Z,54.83
2019-04-06T08:59:51.866Z,55.34
2019-04-06T09:04:56.355Z,55.14
2019-04-06T09:10:00.926Z,54.12
2019-04-06T09:15:08.155Z,53.56
2019-04-06T09:20:12.558Z,53.52
2019-04-06T09:25:17.075Z,53.51
2019-04-06T09:30:21.455Z,53.73
2019-04-06T09:35:25.839Z,53.48
2019-04-06T09:40:30.329Z,53.38
2019-04-06T09:45:48.290Z,52.54
2019-04-06T09:50:54.359Z,51.85
2019-04-06T09:56:15.432Z,50.52
2019-04-06T10:01:39.143Z,50.30
2019-04-06T10:06:49.223Z,47.60
2019-04-06T10:12:00.223Z,46.46
2019-04-06T10:17:22.987Z,46.22
2019-04-06T10:22:43.509Z,44.88
2019-04-06T10:27:49.528Z,44.98
2019-04-06T10:33:04.409Z,44.86
2019-04-06T10:38:19.705Z,44.08
2019-04-06T10:43:25.819Z,43.81
2019-04-06T10:48:33.580Z,43.96
2019-04-06T10:53:40.728Z,43.92
2019-04-06T10:59:05.117Z,42.63
2019-04-06T11:04:13.917Z,43.46
2019-04-06T11:09:25.790Z,44.18
2019-04-06T11:14:34.698Z,44.38
2019-04-06T11:19:47.366Z,43.31
2019-04-06T11:24:59.352Z,43.58
2019-04-06T11:30:15.445Z,43.08
2019-04-06T11:35:24.756Z,41.83
2019-04-06T11:40:36.791Z,43.52
2019-04-06T11:45:55.121Z,42.13
2019-04-06T11:51:01.134Z,42.66
2019-04-06T11:56:22.261Z,40.17
2019-04-06T12:01:28.251Z,41.28
2019-04-06T12:06:43.146Z,43.12
2019-04-06T12:11:49.363Z,43.61
2019-04-06T12:16:58.195Z,42.64
2019-04-06T12:22:16.527Z,43.98
2019-04-06T12:27:41.151Z,41.97
2019-04-06T12:32:47.151Z,41.75
2019-04-06T12:37:59.299Z,42.73
2019-04-06T12:43:11.051Z,41.07
2019-04-06T12:48:28.990Z,39.63
2019-04-06T12:53:47.499Z,39.61
2019-04-06T12:58:53.535Z,40.03
2019-04-06T13:04:15.637Z,41.59
2019-04-06T13:09:37.827Z,41.91
2019-04-06T13:14:43.825Z,39.65
2019-04-06T13:19:55.562Z,40.38
2019-04-06T13:25:13.510Z,39.75
2019-04-06T13:30:34.488Z,39.81
2019-04-06T13:35:43.117Z,38.99
2019-04-06T13:41:04.317Z,38.30
2019-04-06T13:46:28.478Z,38.32
2019-04-06T13:51:40.431Z,36.07
2019-04-06T13:56:52.031Z,35.80
2019-04-06T14:01:58.452Z,37.10
2019-04-06T14:07:10.566Z,35.66
2019-04-06T14:12:32.895Z,35.16
2019-04-06T14:17:50.694Z,39.33
2019-04-06T14:22:59.682Z,40.12
2019-04-06T14:28:05.708Z,39.68
2019-04-06T14:33:17.662Z,41.11
2019-04-06T14:38:39.047Z,41.36
2019-04-06T14:43:51.326Z,42.74
2019-04-06T14:49:27.902Z,43.14
2019-04-06T14:54:21.466Z,43.53
2019-04-06T14:59:30.448Z,43.57
2019-04-06T15:04:54.512Z,44.67
2019-04-06T15:10:00.883Z,45.12
2019-04-06T15:15:17.221Z,45.90
2019-04-06T15:20:26.242Z,45.88
2019-04-06T15:25:41.187Z,45.74
2019-04-06T15:30:59.186Z,46.30
2019-04-06T15:36:07.644Z,47.08
2019-04-06T15:41:28.924Z,47.11
2019-04-06T15:46:40.973Z,46.89
2019-04-06T15:52:11.084Z,46.92
2019-04-06T15:57:17.729Z,46.54
2019-04-06T16:02:24.908Z,46.74
2019-04-06T16:07:33.501Z,46.49
2019-04-06T16:12:47.755Z,48.61
2019-04-06T16:17:56.389Z,49.25
2019-04-06T16:23:08.211Z,49.43
2019-04-06T16:28:14.854Z,48.43
2019-04-06T16:33:20.842Z,47.64
2019-04-06T16:38:42.209Z,47.72
2019-04-06T16:44:00.584Z,51.21
2019-04-06T16:49:16.272Z,53.33
2019-04-06T16:54:38.424Z,54.71
2019-04-06T16:59:56.903Z,55.02
2019-04-06T17:05:02.884Z,54.62
2019-04-06T17:10:15.023Z,54.61
2019-04-06T17:15:30.101Z,54.32
2019-04-06T17:20:38.997Z,54.65
2019-04-06T17:25:45.097Z,54.91
2019-04-06T17:31:03.514Z,54.48
2019-04-06T17:36:09.533Z,54.44
2019-04-06T17:41:32.926Z,54.78
2019-04-06T17:46:57.281Z,55.27
2019-04-06T17:52:03.505Z,55.42
2019-04-06T17:57:18.677Z,55.80
2019-04-06T18:02:24.826Z,56.14
2019-04-06T18:07:31.101Z,56.93
2019-04-06T18:12:49.639Z,57.41
2019-04-06T18:18:00.799Z,57.57
2019-04-06T18:23:05.274Z,58.28
2019-04-06T18:28:12.356Z,59.08
2019-04-06T18:33:18.357Z,59.89
2019-04-06T18:38:36.629Z,60.20
2019-04-06T18:43:41.040Z,60.24
2019-04-06T18:48:45.436Z,61.32
2019-04-06T18:53:50.334Z,62.22
2019-04-06T18:58:54.795Z,63.42
2019-04-06T19:03:59.211Z,64.34
2019-04-06T19:09:05.729Z,64.33
2019-04-06T19:14:10.171Z,65.18
2019-04-06T19:19:14.547Z,66.28
2019-04-06T19:24:19.166Z,65.59
2019-04-06T19:29:23.947Z,66.09
2019-04-06T19:34:28.416Z,66.66
2019-04-06T19:39:32.842Z,67.28
2019-04-06T19:44:37.284Z,67.28
2019-04-06T19:49:41.684Z,68.97
2019-04-06T19:54:46.108Z,69.57
2019-04-06T19:59:50.492Z,69.16
2019-04-06T20:04:54.868Z,68.98
2019-04-06T20:09:59.254Z,71.03
2019-04-06T20:15:04.847Z,71.22
2019-04-06T20:20:09.556Z,73.17
2019-04-06T20:25:14.875Z,72.47
2019-04-06T20:30:19.536Z,73.32
2019-04-06T20:35:23.932Z,72.14
2019-04-06T20:40:28.674Z,72.83
2019-04-06T20:45:33.589Z,71.10
2019-04-06T20:50:38.546Z,74.15
2019-04-06T20:55:43.613Z,73.40
2019-04-06T21:00:49.067Z,73.76
2019-04-06T21:05:53.530Z,74.71
2019-04-06T21:10:57.943Z,75.11
2019-04-06T21:16:02.326Z,75.45
2019-04-06T21:21:07.833Z,75.53
2019-04-06T21:26:12.539Z,75.88
2019-04-06T21:31:17.730Z,76.44
2019-04-06T21:36:22.136Z,76.34
2019-04-06T21:41:27.841Z,76.47
2019-04-06T21:46:32.704Z,76.29
2019-04-06T21:51:37.087Z,76.91
2019-04-06T21:56:41.456Z,76.09
2019-04-06T22:01:46.503Z,75.73
2019-04-06T22:06:51.636Z,75.53
2019-04-06T22:11:56.082Z,76.33
2019-04-06T22:17:00.456Z,77.23
2019-04-06T22:22:05.312Z,78.22
2019-04-06T22:27:09.730Z,78.08
2019-04-06T22:32:14.251Z,78.04
2019-04-06T22:37:18.637Z,78.41
2019-04-06T22:42:22.987Z,78.16
2019-04-06T22:47:27.388Z,78.90
2019-04-06T22:52:31.749Z,78.14
2019-04-06T22:57:36.177Z,79.15
2019-04-06T23:02:42.756Z,79.12
2019-04-06T23:07:47.172Z,79.81
2019-04-06T23:12:51.516Z,80.65
2019-04-06T23:17:55.903Z,78.15
2019-04-06T23:23:00.553Z,80.50
2019-04-06T23:28:05.103Z,79.58
2019-04-06T23:33:09.545Z,80.62
2019-04-06T23:38:13.984Z,81.44
2019-04-06T23:43:18.699Z,80.88
2019-04-06T23:48:24.748Z,81.28
2019-04-06T23:53:29.373Z,81.59
2019-04-06T23:58:33.828Z,80.83
